sensor_id;sensor_type;location;lat;lon;timestamp;P1;durP1;ratioP1;P2;durP2;ratioP2
42196;SDS011;27866;48.146;17.098;2023-03-04T00:03:54;59.83;;;25.58;;
42196;SDS011;27866;48.146;17.098;2023-03-04T00:08:05;61.30;;;25.60;;
42196;SDS011;27866;48.146;17.098;2023-03-04T00:12:16;65.57;;;25.75;;
42196;SDS011;27866;48.146;17.098;2023-03-04T00:16:28;62.50;;;25.35;;
42196;SDS011;27866;48.146;17.098;2023-03-04T00:20:39;62.53;;;25.40;;
42196;SDS011;27866;48.146;17.098;2023-03-04T00:24:50;61.45;;;24.98;;
42196;SDS011;27866;48.146;17.098;2023-03-04T00:29:02;62.78;;;25.90;;
42196;SDS011;27866;48.146;17.098;2023-03-04T00:33:14;64.80;;;24.75;;
42196;SDS011;27866;48.146;17.098;2023-03-04T00:37:26;64.40;;;25.55;;
42196;SDS011;27866;48.146;17.098;2023-03-04T00:41:38;52.33;;;23.27;;
42196;SDS011;27866;48.146;17.098;2023-03-04T00:45:49;59.67;;;24.73;;
42196;SDS011;27866;48.146;17.098;2023-03-04T00:50:00;55.03;;;24.80;;
42196;SDS011;27866;48.146;17.098;2023-03-04T00:54:12;55.85;;;24.30;;
42196;SDS011;27866;48.146;17.098;2023-03-04T00:58:24;57.20;;;25.25;;
42196;SDS011;27866;48.146;17.098;2023-03-04T01:02:35;62.38;;;25.42;;
42196;SDS011;27866;48.146;17.098;2023-03-04T01:06:47;61.10;;;25.25;;
42196;SDS011;27866;48.146;17.098;2023-03-04T01:10:58;66.20;;;26.90;;
42196;SDS011;27866;48.146;17.098;2023-03-04T01:15:10;60.08;;;25.45;;
42196;SDS011;27866;48.146;17.098;2023-03-04T01:19:23;58.53;;;25.10;;
42196;SDS011;27866;48.146;17.098;2023-03-04T01:23:34;56.47;;;25.10;;
42196;SDS011;27866;48.146;17.098;2023-03-04T01:27:45;61.00;;;26.30;;
42196;SDS011;27866;48.146;17.098;2023-03-04T01:31:57;66.45;;;27.27;;
42196;SDS011;27866;48.146;17.098;2023-03-04T01:36:08;63.63;;;26.63;;
42196;SDS011;27866;48.146;17.098;2023-03-04T01:40:19;62.17;;;25.33;;
42196;SDS011;27866;48.146;17.098;2023-03-04T01:44:31;62.75;;;26.17;;
42196;SDS011;27866;48.146;17.098;2023-03-04T01:48:42;64.22;;;27.77;;
42196;SDS011;27866;48.146;17.098;2023-03-04T01:52:54;65.63;;;26.83;;
42196;SDS011;27866;48.146;17.098;2023-03-04T01:57:07;63.58;;;25.95;;
42196;SDS011;27866;48.146;17.098;2023-03-04T02:01:34;70.63;;;26.52;;
42196;SDS011;27866;48.146;17.098;2023-03-04T02:05:49;62.30;;;25.02;;
42196;SDS011;27866;48.146;17.098;2023-03-04T02:10:03;70.63;;;26.77;;
42196;SDS011;27866;48.146;17.098;2023-03-04T02:14:15;65.95;;;26.10;;
42196;SDS011;27866;48.146;17.098;2023-03-04T02:18:28;58.95;;;24.65;;
42196;SDS011;27866;48.146;17.098;2023-03-04T02:22:42;60.28;;;24.33;;
42196;SDS011;27866;48.146;17.098;2023-03-04T02:27:20;63.60;;;25.77;;
42196;SDS011;27866;48.146;17.098;2023-03-04T02:35:46;62.10;;;24.48;;
42196;SDS011;27866;48.146;17.098;2023-03-04T02:39:58;61.72;;;25.02;;
42196;SDS011;27866;48.146;17.098;2023-03-04T02:48:58;59.33;;;26.35;;
42196;SDS011;27866;48.146;17.098;2023-03-04T02:53:09;65.57;;;27.42;;
42196;SDS011;27866;48.146;17.098;2023-03-04T02:57:21;65.40;;;26.98;;
42196;SDS011;27866;48.146;17.098;2023-03-04T03:01:37;65.13;;;27.45;;
42196;SDS011;27866;48.146;17.098;2023-03-04T03:05:48;61.97;;;27.15;;
42196;SDS011;27866;48.146;17.098;2023-03-04T03:10:00;66.30;;;28.02;;
42196;SDS011;27866;48.146;17.098;2023-03-04T03:14:12;67.22;;;28.05;;
42196;SDS011;27866;48.146;17.098;2023-03-04T03:18:24;67.35;;;27.88;;
42196;SDS011;27866;48.146;17.098;2023-03-04T03:22:35;67.22;;;28.50;;
42196;SDS011;27866;48.146;17.098;2023-03-04T03:26:46;60.50;;;26.45;;
42196;SDS011;27866;48.146;17.098;2023-03-04T03:30:58;57.80;;;26.17;;
42196;SDS011;27866;48.146;17.098;2023-03-04T03:35:09;62.35;;;26.08;;
42196;SDS011;27866;48.146;17.098;2023-03-04T03:39:21;60.08;;;24.75;;
42196;SDS011;27866;48.146;17.098;2023-03-04T03:43:32;57.00;;;23.35;;
42196;SDS011;27866;48.146;17.098;2023-03-04T03:47:44;55.05;;;23.42;;
42196;SDS011;27866;48.146;17.098;2023-03-04T03:51:55;51.65;;;23.00;;
42196;SDS011;27866;48.146;17.098;2023-03-04T03:56:06;50.72;;;23.00;;
42196;SDS011;27866;48.146;17.098;2023-03-04T04:00:17;49.35;;;21.30;;
42196;SDS011;27866;48.146;17.098;2023-03-04T04:04:29;48.40;;;20.58;;
42196;SDS011;27866;48.146;17.098;2023-03-04T04:08:41;43.97;;;20.02;;
42196;SDS011;27866;48.146;17.098;2023-03-04T04:12:52;42.80;;;20.13;;
42196;SDS011;27866;48.146;17.098;2023-03-04T04:17:04;39.83;;;17.88;;
42196;SDS011;27866;48.146;17.098;2023-03-04T04:21:15;39.80;;;17.33;;
42196;SDS011;27866;48.146;17.098;2023-03-04T04:25:26;39.45;;;16.75;;
42196;SDS011;27866;48.146;17.098;2023-03-04T04:29:38;38.75;;;17.95;;
42196;SDS011;27866;48.146;17.098;2023-03-04T04:33:50;37.78;;;18.67;;
42196;SDS011;27866;48.146;17.098;2023-03-04T04:38:01;33.92;;;15.68;;
42196;SDS011;27866;48.146;17.098;2023-03-04T04:42:12;37.30;;;18.05;;
42196;SDS011;27866;48.146;17.098;2023-03-04T04:46:24;36.55;;;16.40;;
42196;SDS011;27866;48.146;17.098;2023-03-04T04:50:36;37.15;;;16.90;;
42196;SDS011;27866;48.146;17.098;2023-03-04T04:54:47;41.35;;;19.10;;
42196;SDS011;27866;48.146;17.098;2023-03-04T04:58:59;40.08;;;18.83;;
42196;SDS011;27866;48.146;17.098;2023-03-04T05:03:13;39.35;;;18.38;;
42196;SDS011;27866;48.146;17.098;2023-03-04T05:07:25;39.35;;;17.98;;
42196;SDS011;27866;48.146;17.098;2023-03-04T05:11:36;40.95;;;17.85;;
42196;SDS011;27866;48.146;17.098;2023-03-04T05:15:49;35.72;;;16.98;;
42196;SDS011;27866;48.146;17.098;2023-03-04T05:20:04;43.08;;;19.50;;
42196;SDS011;27866;48.146;17.098;2023-03-04T05:24:16;39.50;;;17.67;;
42196;SDS011;27866;48.146;17.098;2023-03-04T05:28:27;41.45;;;18.58;;
42196;SDS011;27866;48.146;17.098;2023-03-04T05:32:39;35.10;;;16.17;;
42196;SDS011;27866;48.146;17.098;2023-03-04T05:36:51;33.95;;;17.33;;
42196;SDS011;27866;48.146;17.098;2023-03-04T05:41:03;35.53;;;15.23;;
42196;SDS011;27866;48.146;17.098;2023-03-04T05:45:16;34.00;;;15.38;;
42196;SDS011;27866;48.146;17.098;2023-03-04T05:49:27;33.80;;;15.02;;
42196;SDS011;27866;48.146;17.098;2023-03-04T05:53:39;33.28;;;15.20;;
42196;SDS011;27866;48.146;17.098;2023-03-04T05:57:51;28.40;;;13.93;;
42196;SDS011;27866;48.146;17.098;2023-03-04T06:02:02;29.83;;;14.48;;
42196;SDS011;27866;48.146;17.098;2023-03-04T06:06:13;28.50;;;14.48;;
42196;SDS011;27866;48.146;17.098;2023-03-04T06:10:24;27.73;;;13.68;;
42196;SDS011;27866;48.146;17.098;2023-03-04T06:14:36;27.58;;;13.75;;
42196;SDS011;27866;48.146;17.098;2023-03-04T06:18:47;29.27;;;14.23;;
42196;SDS011;27866;48.146;17.098;2023-03-04T06:22:58;28.02;;;13.63;;
42196;SDS011;27866;48.146;17.098;2023-03-04T06:27:10;23.92;;;13.10;;
42196;SDS011;27866;48.146;17.098;2023-03-04T06:31:23;25.60;;;13.05;;
42196;SDS011;27866;48.146;17.098;2023-03-04T06:35:34;27.38;;;13.30;;
42196;SDS011;27866;48.146;17.098;2023-03-04T06:39:45;20.80;;;11.95;;
42196;SDS011;27866;48.146;17.098;2023-03-04T06:43:56;23.85;;;13.45;;
42196;SDS011;27866;48.146;17.098;2023-03-04T06:48:08;24.80;;;13.10;;
42196;SDS011;27866;48.146;17.098;2023-03-04T06:52:19;27.45;;;14.70;;
42196;SDS011;27866;48.146;17.098;2023-03-04T06:56:31;26.65;;;13.50;;
42196;SDS011;27866;48.146;17.098;2023-03-04T07:00:43;23.55;;;14.05;;
42196;SDS011;27866;48.146;17.098;2023-03-04T07:04:54;26.30;;;14.45;;
42196;SDS011;27866;48.146;17.098;2023-03-04T07:09:06;28.25;;;13.90;;
42196;SDS011;27866;48.146;17.098;2023-03-04T07:13:17;27.85;;;14.85;;
42196;SDS011;27866;48.146;17.098;2023-03-04T07:17:28;28.60;;;15.60;;
42196;SDS011;27866;48.146;17.098;2023-03-04T07:21:39;29.95;;;16.38;;
42196;SDS011;27866;48.146;17.098;2023-03-04T07:25:50;30.85;;;17.85;;
42196;SDS011;27866;48.146;17.098;2023-03-04T07:30:02;34.35;;;17.15;;
42196;SDS011;27866;48.146;17.098;2023-03-04T07:34:17;34.20;;;18.00;;
42196;SDS011;27866;48.146;17.098;2023-03-04T07:38:28;35.22;;;18.27;;
42196;SDS011;27866;48.146;17.098;2023-03-04T07:42:40;34.33;;;19.10;;
42196;SDS011;27866;48.146;17.098;2023-03-04T07:46:55;36.03;;;18.70;;
42196;SDS011;27866;48.146;17.098;2023-03-04T07:51:17;44.80;;;19.83;;
42196;SDS011;27866;48.146;17.098;2023-03-04T07:55:30;35.50;;;20.42;;
42196;SDS011;27866;48.146;17.098;2023-03-04T07:59:42;43.13;;;20.08;;
42196;SDS011;27866;48.146;17.098;2023-03-04T08:03:53;37.40;;;20.30;;
42196;SDS011;27866;48.146;17.098;2023-03-04T08:08:05;41.22;;;22.17;;
42196;SDS011;27866;48.146;17.098;2023-03-04T08:12:16;43.92;;;22.05;;
42196;SDS011;27866;48.146;17.098;2023-03-04T08:16:28;34.97;;;20.40;;
42196;SDS011;27866;48.146;17.098;2023-03-04T08:20:42;39.90;;;21.17;;
42196;SDS011;27866;48.146;17.098;2023-03-04T08:24:54;37.88;;;21.90;;
42196;SDS011;27866;48.146;17.098;2023-03-04T08:29:05;40.97;;;21.42;;
42196;SDS011;27866;48.146;17.098;2023-03-04T08:33:17;38.17;;;21.40;;
42196;SDS011;27866;48.146;17.098;2023-03-04T08:37:28;34.53;;;19.73;;
42196;SDS011;27866;48.146;17.098;2023-03-04T08:41:40;37.47;;;20.75;;
42196;SDS011;27866;48.146;17.098;2023-03-04T08:45:52;36.80;;;20.83;;
42196;SDS011;27866;48.146;17.098;2023-03-04T08:50:04;30.35;;;18.23;;
42196;SDS011;27866;48.146;17.098;2023-03-04T08:54:17;32.90;;;19.38;;
42196;SDS011;27866;48.146;17.098;2023-03-04T08:58:28;31.33;;;19.33;;
42196;SDS011;27866;48.146;17.098;2023-03-04T09:02:39;34.92;;;21.23;;
42196;SDS011;27866;48.146;17.098;2023-03-04T09:06:51;33.22;;;21.33;;
42196;SDS011;27866;48.146;17.098;2023-03-04T09:11:02;37.05;;;21.48;;
42196;SDS011;27866;48.146;17.098;2023-03-04T09:15:14;37.70;;;21.38;;
42196;SDS011;27866;48.146;17.098;2023-03-04T09:19:25;37.88;;;22.10;;
42196;SDS011;27866;48.146;17.098;2023-03-04T09:23:37;35.92;;;21.15;;
42196;SDS011;27866;48.146;17.098;2023-03-04T09:27:50;35.38;;;21.23;;
42196;SDS011;27866;48.146;17.098;2023-03-04T09:32:01;36.45;;;21.25;;
42196;SDS011;27866;48.146;17.098;2023-03-04T09:36:12;32.80;;;20.60;;
42196;SDS011;27866;48.146;17.098;2023-03-04T09:40:58;39.55;;;22.65;;
42196;SDS011;27866;48.146;17.098;2023-03-04T09:45:03;33.05;;;20.90;;
42196;SDS011;27866;48.146;17.098;2023-03-04T09:49:17;32.40;;;20.80;;
42196;SDS011;27866;48.146;17.098;2023-03-04T09:54:13;34.45;;;20.98;;
42196;SDS011;27866;48.146;17.098;2023-03-04T10:07:32;31.70;;;19.77;;
42196;SDS011;27866;48.146;17.098;2023-03-04T10:11:53;32.55;;;20.80;;
42196;SDS011;27866;48.146;17.098;2023-03-04T10:16:22;37.97;;;21.92;;
42196;SDS011;27866;48.146;17.098;2023-03-04T10:20:55;34.17;;;20.40;;
42196;SDS011;27866;48.146;17.098;2023-03-04T10:25:42;37.92;;;20.70;;
42196;SDS011;27866;48.146;17.098;2023-03-04T10:29:57;36.25;;;18.83;;
42196;SDS011;27866;48.146;17.098;2023-03-04T10:34:11;32.95;;;19.17;;
42196;SDS011;27866;48.146;17.098;2023-03-04T10:38:24;37.28;;;19.55;;
42196;SDS011;27866;48.146;17.098;2023-03-04T10:42:35;33.60;;;19.00;;
42196;SDS011;27866;48.146;17.098;2023-03-04T10:46:48;31.60;;;18.65;;
42196;SDS011;27866;48.146;17.098;2023-03-04T10:51:17;35.05;;;19.15;;
42196;SDS011;27866;48.146;17.098;2023-03-04T10:55:41;34.85;;;20.10;;
42196;SDS011;27866;48.146;17.098;2023-03-04T11:04:31;36.38;;;20.65;;
42196;SDS011;27866;48.146;17.098;2023-03-04T11:08:43;36.90;;;18.60;;
42196;SDS011;27866;48.146;17.098;2023-03-04T11:13:13;33.03;;;18.52;;
42196;SDS011;27866;48.146;17.098;2023-03-04T11:17:41;30.60;;;18.73;;
42196;SDS011;27866;48.146;17.098;2023-03-04T11:21:59;28.25;;;17.75;;
42196;SDS011;27866;48.146;17.098;2023-03-04T11:26:13;27.83;;;15.95;;
42196;SDS011;27866;48.146;17.098;2023-03-04T11:39:38;23.83;;;14.47;;
42196;SDS011;27866;48.146;17.098;2023-03-04T11:44:14;24.60;;;15.57;;
42196;SDS011;27866;48.146;17.098;2023-03-04T11:52:59;20.20;;;12.70;;
42196;SDS011;27866;48.146;17.098;2023-03-04T12:43:30;16.17;;;9.82;;
42196;SDS011;27866;48.146;17.098;2023-03-04T12:57:21;12.80;;;8.07;;
42196;SDS011;27866;48.146;17.098;2023-03-04T13:06:40;11.60;;;7.32;;
42196;SDS011;27866;48.146;17.098;2023-03-04T13:15:36;6.47;;;4.65;;
42196;SDS011;27866;48.146;17.098;2023-03-04T13:19:55;11.60;;;5.72;;
42196;SDS011;27866;48.146;17.098;2023-03-04T13:29:09;13.13;;;9.38;;
42196;SDS011;27866;48.146;17.098;2023-03-04T13:37:55;14.48;;;10.68;;
42196;SDS011;27866;48.146;17.098;2023-03-04T13:42:36;17.08;;;11.50;;
42196;SDS011;27866;48.146;17.098;2023-03-04T13:46:52;17.45;;;12.25;;
42196;SDS011;27866;48.146;17.098;2023-03-04T13:51:11;19.48;;;12.90;;
42196;SDS011;27866;48.146;17.098;2023-03-04T13:55:37;18.88;;;13.68;;
42196;SDS011;27866;48.146;17.098;2023-03-04T13:59:53;19.45;;;14.05;;
42196;SDS011;27866;48.146;17.098;2023-03-04T14:04:11;21.08;;;15.38;;
42196;SDS011;27866;48.146;17.098;2023-03-04T14:08:30;22.20;;;14.25;;
42196;SDS011;27866;48.146;17.098;2023-03-04T14:12:51;21.00;;;15.70;;
42196;SDS011;27866;48.146;17.098;2023-03-04T14:17:08;21.88;;;14.40;;
42196;SDS011;27866;48.146;17.098;2023-03-04T14:21:45;21.05;;;14.90;;
42196;SDS011;27866;48.146;17.098;2023-03-04T14:26:16;20.27;;;14.20;;
42196;SDS011;27866;48.146;17.098;2023-03-04T14:30:29;22.00;;;14.65;;
42196;SDS011;27866;48.146;17.098;2023-03-04T14:34:41;21.08;;;15.75;;
42196;SDS011;27866;48.146;17.098;2023-03-04T14:38:53;27.27;;;14.68;;
42196;SDS011;27866;48.146;17.098;2023-03-04T14:43:15;19.60;;;14.18;;
42196;SDS011;27866;48.146;17.098;2023-03-04T14:47:51;19.77;;;14.75;;
42196;SDS011;27866;48.146;17.098;2023-03-04T14:52:24;20.15;;;13.80;;
42196;SDS011;27866;48.146;17.098;2023-03-04T14:56:48;22.38;;;13.57;;
42196;SDS011;27866;48.146;17.098;2023-03-04T15:05:48;21.00;;;14.70;;
42196;SDS011;27866;48.146;17.098;2023-03-04T15:19:05;23.30;;;14.68;;
42196;SDS011;27866;48.146;17.098;2023-03-04T15:23:36;24.38;;;15.13;;
42196;SDS011;27866;48.146;17.098;2023-03-04T15:27:48;21.02;;;13.85;;
42196;SDS011;27866;48.146;17.098;2023-03-04T15:32:00;28.67;;;14.77;;
42196;SDS011;27866;48.146;17.098;2023-03-04T15:36:12;26.83;;;15.65;;
42196;SDS011;27866;48.146;17.098;2023-03-04T15:40:31;25.58;;;14.65;;
42196;SDS011;27866;48.146;17.098;2023-03-04T15:44:48;25.08;;;14.02;;
42196;SDS011;27866;48.146;17.098;2023-03-04T15:48:59;23.52;;;13.02;;
42196;SDS011;27866;48.146;17.098;2023-03-04T15:57:47;24.52;;;11.65;;
42196;SDS011;27866;48.146;17.098;2023-03-04T16:02:04;18.13;;;11.27;;
42196;SDS011;27866;48.146;17.098;2023-03-04T16:06:30;19.90;;;11.82;;
42196;SDS011;27866;48.146;17.098;2023-03-04T16:10:42;19.60;;;11.18;;
42196;SDS011;27866;48.146;17.098;2023-03-04T16:14:54;21.42;;;10.85;;
42196;SDS011;27866;48.146;17.098;2023-03-04T16:19:05;18.38;;;10.20;;
42196;SDS011;27866;48.146;17.098;2023-03-04T16:23:20;16.45;;;9.68;;
42196;SDS011;27866;48.146;17.098;2023-03-04T16:27:34;18.90;;;10.30;;
42196;SDS011;27866;48.146;17.098;2023-03-04T16:31:45;17.92;;;9.48;;
42196;SDS011;27866;48.146;17.098;2023-03-04T16:35:57;17.05;;;9.55;;
42196;SDS011;27866;48.146;17.098;2023-03-04T16:40:13;17.77;;;9.50;;
42196;SDS011;27866;48.146;17.098;2023-03-04T16:44:27;17.35;;;9.27;;
42196;SDS011;27866;48.146;17.098;2023-03-04T16:48:38;19.33;;;9.38;;
42196;SDS011;27866;48.146;17.098;2023-03-04T16:52:50;15.52;;;9.25;;
42196;SDS011;27866;48.146;17.098;2023-03-04T16:57:02;15.48;;;9.63;;
42196;SDS011;27866;48.146;17.098;2023-03-04T17:01:20;15.52;;;9.02;;
42196;SDS011;27866;48.146;17.098;2023-03-04T17:05:35;16.42;;;9.18;;
42196;SDS011;27866;48.146;17.098;2023-03-04T17:09:46;17.85;;;9.85;;
42196;SDS011;27866;48.146;17.098;2023-03-04T17:13:59;17.73;;;9.75;;
42196;SDS011;27866;48.146;17.098;2023-03-04T17:18:11;17.33;;;9.85;;
42196;SDS011;27866;48.146;17.098;2023-03-04T17:22:22;19.40;;;9.55;;
42196;SDS011;27866;48.146;17.098;2023-03-04T17:26:35;16.42;;;9.43;;
42196;SDS011;27866;48.146;17.098;2023-03-04T17:30:46;18.42;;;9.88;;
42196;SDS011;27866;48.146;17.098;2023-03-04T17:34:58;18.83;;;9.48;;
42196;SDS011;27866;48.146;17.098;2023-03-04T17:39:09;16.20;;;9.50;;
42196;SDS011;27866;48.146;17.098;2023-03-04T17:43:21;17.23;;;8.73;;
42196;SDS011;27866;48.146;17.098;2023-03-04T17:47:33;14.80;;;8.85;;
42196;SDS011;27866;48.146;17.098;2023-03-04T17:51:44;15.23;;;9.13;;
42196;SDS011;27866;48.146;17.098;2023-03-04T17:55:56;13.75;;;8.80;;
42196;SDS011;27866;48.146;17.098;2023-03-04T18:00:11;15.80;;;8.63;;
42196;SDS011;27866;48.146;17.098;2023-03-04T18:04:23;15.00;;;7.82;;
42196;SDS011;27866;48.146;17.098;2023-03-04T18:08:34;16.00;;;9.27;;
42196;SDS011;27866;48.146;17.098;2023-03-04T18:12:46;17.25;;;8.45;;
42196;SDS011;27866;48.146;17.098;2023-03-04T18:16:57;16.95;;;8.55;;
42196;SDS011;27866;48.146;17.098;2023-03-04T18:21:08;15.32;;;8.63;;
42196;SDS011;27866;48.146;17.098;2023-03-04T18:25:20;16.70;;;8.60;;
42196;SDS011;27866;48.146;17.098;2023-03-04T18:29:32;16.08;;;8.38;;
42196;SDS011;27866;48.146;17.098;2023-03-04T18:33:43;15.65;;;8.50;;
42196;SDS011;27866;48.146;17.098;2023-03-04T18:37:56;18.52;;;9.13;;
42196;SDS011;27866;48.146;17.098;2023-03-04T18:42:09;18.10;;;8.50;;
42196;SDS011;27866;48.146;17.098;2023-03-04T18:46:30;18.88;;;9.18;;
42196;SDS011;27866;48.146;17.098;2023-03-04T18:50:52;17.45;;;8.80;;
42196;SDS011;27866;48.146;17.098;2023-03-04T18:55:07;14.88;;;9.27;;
42196;SDS011;27866;48.146;17.098;2023-03-04T18:59:24;17.05;;;9.57;;
42196;SDS011;27866;48.146;17.098;2023-03-04T19:03:46;18.88;;;10.43;;
42196;SDS011;27866;48.146;17.098;2023-03-04T19:07:58;17.55;;;10.10;;
42196;SDS011;27866;48.146;17.098;2023-03-04T19:12:10;20.30;;;10.00;;
42196;SDS011;27866;48.146;17.098;2023-03-04T19:16:21;17.50;;;9.80;;
42196;SDS011;27866;48.146;17.098;2023-03-04T19:20:34;22.98;;;10.18;;
42196;SDS011;27866;48.146;17.098;2023-03-04T19:24:47;17.80;;;10.27;;
42196;SDS011;27866;48.146;17.098;2023-03-04T19:28:58;16.58;;;9.90;;
42196;SDS011;27866;48.146;17.098;2023-03-04T19:33:09;17.55;;;10.38;;
42196;SDS011;27866;48.146;17.098;2023-03-04T19:37:22;20.50;;;9.60;;
42196;SDS011;27866;48.146;17.098;2023-03-04T19:41:33;19.88;;;9.95;;
42196;SDS011;27866;48.146;17.098;2023-03-04T19:45:54;18.75;;;10.48;;
42196;SDS011;27866;48.146;17.098;2023-03-04T19:50:07;16.00;;;9.90;;
42196;SDS011;27866;48.146;17.098;2023-03-04T19:54:20;18.38;;;9.25;;
42196;SDS011;27866;48.146;17.098;2023-03-04T19:58:31;24.23;;;10.25;;
42196;SDS011;27866;48.146;17.098;2023-03-04T20:02:43;18.13;;;9.57;;
42196;SDS011;27866;48.146;17.098;2023-03-04T20:06:55;15.07;;;8.75;;
42196;SDS011;27866;48.146;17.098;2023-03-04T20:11:07;22.63;;;9.82;;
42196;SDS011;27866;48.146;17.098;2023-03-04T20:15:22;15.02;;;9.05;;
42196;SDS011;27866;48.146;17.098;2023-03-04T20:19:33;15.10;;;9.07;;
42196;SDS011;27866;48.146;17.098;2023-03-04T20:23:44;15.15;;;8.90;;
42196;SDS011;27866;48.146;17.098;2023-03-04T20:27:56;14.70;;;9.18;;
42196;SDS011;27866;48.146;17.098;2023-03-04T20:32:08;17.60;;;9.82;;
42196;SDS011;27866;48.146;17.098;2023-03-04T20:36:21;18.23;;;9.70;;
42196;SDS011;27866;48.146;17.098;2023-03-04T20:40:34;16.70;;;9.15;;
42196;SDS011;27866;48.146;17.098;2023-03-04T20:44:47;15.60;;;9.35;;
42196;SDS011;27866;48.146;17.098;2023-03-04T20:49:04;13.02;;;8.38;;
42196;SDS011;27866;48.146;17.098;2023-03-04T20:53:18;15.45;;;8.93;;
42196;SDS011;27866;48.146;17.098;2023-03-04T20:57:29;15.77;;;8.25;;
42196;SDS011;27866;48.146;17.098;2023-03-04T21:01:42;14.90;;;8.18;;
42196;SDS011;27866;48.146;17.098;2023-03-04T21:05:54;16.17;;;10.00;;
42196;SDS011;27866;48.146;17.098;2023-03-04T21:10:05;14.55;;;8.68;;
42196;SDS011;27866;48.146;17.098;2023-03-04T21:14:23;16.65;;;9.07;;
42196;SDS011;27866;48.146;17.098;2023-03-04T21:18:37;17.58;;;9.85;;
42196;SDS011;27866;48.146;17.098;2023-03-04T21:22:48;16.33;;;9.30;;
42196;SDS011;27866;48.146;17.098;2023-03-04T21:27:00;18.42;;;8.60;;
42196;SDS011;27866;48.146;17.098;2023-03-04T21:31:18;15.75;;;8.52;;
42196;SDS011;27866;48.146;17.098;2023-03-04T21:35:38;17.08;;;8.68;;
42196;SDS011;27866;48.146;17.098;2023-03-04T21:39:49;16.25;;;9.10;;
42196;SDS011;27866;48.146;17.098;2023-03-04T21:44:00;14.00;;;8.07;;
42196;SDS011;27866;48.146;17.098;2023-03-04T21:48:11;15.52;;;8.30;;
42196;SDS011;27866;48.146;17.098;2023-03-04T21:52:25;17.85;;;7.82;;
42196;SDS011;27866;48.146;17.098;2023-03-04T21:56:36;14.65;;;7.65;;
42196;SDS011;27866;48.146;17.098;2023-03-04T22:00:48;18.08;;;8.32;;
42196;SDS011;27866;48.146;17.098;2023-03-04T22:05:02;16.10;;;7.40;;
42196;SDS011;27866;48.146;17.098;2023-03-04T22:09:13;18.27;;;6.78;;
42196;SDS011;27866;48.146;17.098;2023-03-04T22:13:25;15.18;;;7.53;;
42196;SDS011;27866;48.146;17.098;2023-03-04T22:17:36;12.85;;;6.75;;
42196;SDS011;27866;48.146;17.098;2023-03-04T22:21:47;14.38;;;6.75;;
42196;SDS011;27866;48.146;17.098;2023-03-04T22:26:12;14.43;;;6.70;;
42196;SDS011;27866;48.146;17.098;2023-03-04T22:30:32;14.30;;;6.78;;
42196;SDS011;27866;48.146;17.098;2023-03-04T22:34:45;15.98;;;7.25;;
42196;SDS011;27866;48.146;17.098;2023-03-04T22:38:56;18.23;;;6.60;;
42196;SDS011;27866;48.146;17.098;2023-03-04T22:43:08;13.55;;;6.68;;
42196;SDS011;27866;48.146;17.098;2023-03-04T22:47:19;13.13;;;6.78;;
42196;SDS011;27866;48.146;17.098;2023-03-04T22:51:31;12.60;;;6.45;;
42196;SDS011;27866;48.146;17.098;2023-03-04T22:55:43;15.30;;;7.05;;
42196;SDS011;27866;48.146;17.098;2023-03-04T22:59:54;14.98;;;7.45;;
42196;SDS011;27866;48.146;17.098;2023-03-04T23:04:06;15.02;;;7.40;;
42196;SDS011;27866;48.146;17.098;2023-03-04T23:08:17;17.13;;;7.43;;
42196;SDS011;27866;48.146;17.098;2023-03-04T23:12:28;14.90;;;7.20;;
42196;SDS011;27866;48.146;17.098;2023-03-04T23:16:44;12.95;;;7.15;;
42196;SDS011;27866;48.146;17.098;2023-03-04T23:20:56;14.27;;;7.00;;
42196;SDS011;27866;48.146;17.098;2023-03-04T23:25:07;15.60;;;7.82;;
42196;SDS011;27866;48.146;17.098;2023-03-04T23:29:19;16.70;;;7.72;;
42196;SDS011;27866;48.146;17.098;2023-03-04T23:33:31;16.90;;;8.38;;
42196;SDS011;27866;48.146;17.098;2023-03-04T23:37:42;18.40;;;8.70;;
42196;SDS011;27866;48.146;17.098;2023-03-04T23:41:53;16.75;;;8.60;;
42196;SDS011;27866;48.146;17.098;2023-03-04T23:46:04;17.40;;;8.77;;
42196;SDS011;27866;48.146;17.098;2023-03-04T23:50:18;14.97;;;9.27;;
42196;SDS011;27866;48.146;17.098;2023-03-04T23:54:30;16.65;;;9.20;;
42196;SDS011;27866;48.146;17.098;2023-03-04T23:58:41;17.75;;;9.68;;
